createdAt,value
2019-01-24T00:01:22.973Z,49.53
2019-01-24T00:04:03.388Z,49.77
2019-01-24T00:06:43.756Z,47.23
2019-01-24T00:09:26.839Z,49.70
2019-01-24T00:12:07.763Z,47.87
2019-01-24T00:14:48.640Z,45.43
2019-01-24T00:17:28.880Z,48.33
2019-01-24T00:20:09.314Z,44.00
2019-01-24T00:22:50.204Z,44.70
2019-01-24T00:25:33.961Z,44.23
2019-01-24T00:28:15.145Z,45.00
2019-01-24T00:30:55.407Z,45.17
2019-01-24T00:33:36.019Z,43.00
2019-01-24T00:36:17.231Z,41.93
2019-01-24T00:38:58.061Z,43.60
2019-01-24T00:41:39.161Z,41.93
2019-01-24T00:44:19.691Z,39.60
2019-01-24T00:47:00.396Z,38.13
2019-01-24T00:49:41.180Z,40.20
2019-01-24T00:52:21.909Z,38.03
2019-01-24T00:55:02.442Z,38.53
2019-01-24T00:57:46.465Z,35.50
2019-01-24T01:00:34.513Z,37.57
2019-01-24T01:03:22.284Z,34.20
2019-01-24T01:06:10.033Z,37.03
2019-01-24T01:08:57.903Z,36.35
2019-01-24T01:11:45.648Z,37.37
2019-01-24T01:14:33.428Z,39.07
2019-01-24T01:17:21.477Z,39.70
2019-01-24T01:20:29.996Z,37.87
2019-01-24T01:23:17.736Z,37.57
2019-01-24T01:26:06.064Z,37.67
2019-01-24T01:28:53.833Z,35.60
2019-01-24T01:31:41.637Z,38.80
2019-01-24T01:34:29.436Z,37.10
2019-01-24T01:37:17.285Z,35.50
2019-01-24T01:40:25.765Z,38.40
2019-01-24T01:48:47.876Z,36.80
2019-01-24T01:54:37.053Z,34.10
2019-01-24T01:57:18.316Z,36.90
2019-01-24T01:59:59.099Z,34.33
2019-01-24T02:02:39.853Z,35.53
2019-01-24T02:05:20.583Z,34.27
2019-01-24T02:08:00.933Z,35.10
2019-01-24T02:10:41.785Z,34.53
2019-01-24T02:13:22.736Z,32.97
2019-01-24T02:16:03.296Z,34.13
2019-01-24T02:18:44.042Z,34.80
2019-01-24T02:21:25.312Z,35.10
2019-01-24T02:24:05.981Z,35.53
2019-01-24T02:26:46.601Z,35.30
2019-01-24T02:29:27.639Z,35.83
2019-01-24T02:32:08.528Z,35.27
2019-01-24T02:34:49.815Z,34.73
2019-01-24T02:37:30.741Z,37.43
2019-01-24T02:40:11.644Z,35.43
2019-01-24T02:42:52.187Z,36.57
2019-01-24T02:45:32.732Z,35.87
2019-01-24T02:48:13.175Z,37.13
2019-01-24T02:50:53.682Z,33.47
2019-01-24T02:53:34.814Z,34.93
2019-01-24T02:56:15.989Z,34.03
2019-01-24T02:58:57.100Z,32.00
2019-01-24T03:01:37.879Z,34.07
2019-01-24T03:04:18.609Z,31.70
2019-01-24T03:06:59.048Z,32.17
2019-01-24T03:09:39.926Z,31.00
2019-01-24T03:12:20.727Z,30.43
2019-01-24T03:15:01.544Z,30.60
2019-01-24T03:17:42.108Z,29.97
2019-01-24T03:20:23.105Z,28.17
2019-01-24T03:23:03.477Z,30.03
2019-01-24T03:25:44.238Z,29.60
2019-01-24T03:28:25.377Z,30.03
2019-01-24T03:31:07.804Z,29.30
2019-01-24T03:36:33.569Z,32.17
2019-01-24T03:39:13.748Z,31.40
2019-01-24T03:41:54.348Z,29.27
2019-01-24T03:44:34.877Z,30.57
2019-01-24T03:47:17.980Z,30.17
2019-01-24T03:49:58.382Z,31.00
2019-01-24T03:52:38.883Z,31.63
2019-01-24T03:55:19.646Z,31.17
2019-01-24T03:58:01.696Z,32.13
2019-01-24T04:00:42.909Z,31.37
2019-01-24T04:03:23.994Z,31.27
2019-01-24T04:06:04.463Z,32.63
2019-01-24T04:08:45.811Z,29.57
2019-01-24T04:11:26.119Z,28.00
2019-01-24T04:14:06.593Z,28.00
2019-01-24T04:16:47.083Z,27.70
2019-01-24T04:19:28.018Z,28.13
2019-01-24T04:22:09.014Z,26.60
2019-01-24T04:24:49.959Z,28.40
2019-01-24T04:27:30.927Z,28.97
2019-01-24T04:30:14.332Z,29.63
2019-01-24T04:32:55.312Z,29.33
2019-01-24T04:35:36.134Z,28.27
2019-01-24T04:38:16.924Z,29.47
2019-01-24T04:40:59.513Z,28.83
2019-01-24T04:43:41.826Z,28.90
2019-01-24T04:46:22.929Z,28.47
2019-01-24T04:49:03.880Z,29.30
2019-01-24T04:51:44.884Z,29.80
2019-01-24T04:54:25.457Z,28.90
2019-01-24T04:57:08.425Z,28.60
2019-01-24T04:59:49.065Z,28.87
2019-01-24T05:02:29.522Z,30.83
2019-01-24T05:05:09.986Z,29.13
2019-01-24T05:07:38.424Z,28.87
2019-01-24T05:10:26.157Z,28.97
2019-01-24T05:13:14.205Z,27.50
2019-01-24T05:16:02.159Z,30.77
2019-01-24T05:19:10.893Z,29.23
2019-01-24T05:21:58.760Z,30.03
2019-01-24T05:24:46.968Z,29.97
2019-01-24T05:27:34.778Z,30.47
2019-01-24T05:30:43.294Z,31.03
2019-01-24T05:33:31.329Z,29.73
2019-01-24T05:36:19.106Z,30.53
2019-01-24T05:39:07.147Z,30.93
2019-01-24T05:41:54.926Z,30.80
2019-01-24T05:45:03.420Z,31.83
2019-01-24T05:47:51.164Z,29.97
2019-01-24T05:50:38.941Z,29.07
2019-01-24T05:53:26.714Z,28.90
2019-01-24T05:56:07.779Z,30.17
2019-01-24T05:58:48.705Z,29.93
2019-01-24T06:01:47.051Z,27.97
2019-01-24T06:04:24.949Z,31.00
2019-01-24T06:07:05.437Z,29.90
2019-01-24T06:09:46.265Z,29.47
2019-01-24T06:12:27.174Z,31.30
2019-01-24T06:15:07.906Z,29.87
2019-01-24T06:17:48.814Z,32.07
2019-01-24T06:20:29.626Z,30.97
2019-01-24T06:23:11.203Z,31.17
2019-01-24T06:25:52.137Z,31.70
2019-01-24T06:28:33.567Z,30.60
2019-01-24T06:31:14.224Z,30.07
2019-01-24T06:33:54.995Z,30.90
2019-01-24T06:36:35.725Z,29.47
2019-01-24T06:39:16.408Z,29.70
2019-01-24T06:41:57.057Z,29.20
2019-01-24T06:44:37.920Z,30.90
2019-01-24T06:47:18.743Z,28.97
2019-01-24T06:49:59.512Z,30.37
2019-01-24T06:52:40.382Z,29.07
2019-01-24T06:55:20.969Z,29.40
2019-01-24T06:58:02.005Z,29.27
2019-01-24T07:00:43.147Z,30.47
2019-01-24T07:03:11.552Z,29.17
2019-01-24T07:05:59.316Z,29.53
2019-01-24T07:08:47.129Z,30.20
2019-01-24T07:11:34.928Z,29.57
2019-01-24T07:14:22.685Z,29.80
2019-01-24T07:17:10.449Z,29.47
2019-01-24T07:19:58.223Z,30.73
2019-01-24T07:22:45.986Z,29.20
2019-01-24T07:25:33.757Z,29.93
2019-01-24T07:28:21.506Z,28.77
2019-01-24T07:31:09.460Z,29.63
2019-01-24T07:33:57.224Z,28.60
2019-01-24T07:36:45.024Z,29.67
2019-01-24T07:39:32.965Z,28.80
2019-01-24T07:42:20.853Z,30.00
2019-01-24T07:45:29.350Z,30.63
2019-01-24T07:48:17.117Z,30.07
2019-01-24T07:50:57.827Z,30.00
2019-01-24T07:53:38.319Z,29.70
2019-01-24T07:56:19.234Z,28.63
2019-01-24T07:58:59.889Z,30.20
2019-01-24T08:01:41.121Z,30.33
2019-01-24T08:04:22.109Z,30.50
2019-01-24T08:07:02.706Z,30.33
2019-01-24T08:09:43.484Z,29.53
2019-01-24T08:12:24.695Z,29.70
2019-01-24T08:15:05.576Z,30.30
2019-01-24T08:17:46.356Z,29.73
2019-01-24T08:20:27.337Z,31.40
2019-01-24T08:23:08.303Z,30.97
2019-01-24T08:25:49.267Z,30.70
2019-01-24T08:28:30.109Z,31.40
2019-01-24T08:31:11.041Z,31.23
2019-01-24T08:33:51.822Z,30.33
2019-01-24T08:36:32.745Z,30.20
2019-01-24T08:39:13.400Z,31.50
2019-01-24T08:41:54.477Z,30.83
2019-01-24T08:44:35.280Z,31.13
2019-01-24T08:47:16.095Z,31.70
2019-01-24T08:49:57.140Z,31.03
2019-01-24T08:52:37.869Z,31.13
2019-01-24T08:55:18.619Z,30.80
2019-01-24T08:57:59.172Z,29.57
2019-01-24T09:00:37.885Z,30.17
2019-01-24T09:03:25.663Z,28.93
2019-01-24T09:06:13.427Z,28.20
2019-01-24T09:09:01.203Z,28.40
2019-01-24T09:11:49.337Z,30.20
2019-01-24T09:14:37.477Z,29.33
2019-01-24T09:17:25.244Z,29.17
2019-01-24T09:20:32.413Z,27.87
2019-01-24T09:23:20.153Z,28.20
2019-01-24T09:26:08.279Z,29.90
2019-01-24T09:28:56.026Z,29.30
2019-01-24T09:31:43.862Z,29.60
2019-01-24T09:34:31.660Z,29.67
2019-01-24T09:37:19.444Z,30.90
2019-01-24T09:40:00.097Z,30.33
2019-01-24T09:42:40.828Z,32.57
2019-01-24T09:45:21.673Z,30.23
2019-01-24T09:48:02.669Z,31.40
2019-01-24T09:50:43.393Z,31.43
2019-01-24T09:53:24.040Z,30.90
2019-01-24T09:56:04.669Z,31.90
2019-01-24T09:58:45.874Z,31.97
2019-01-24T10:01:26.988Z,31.73
2019-01-24T10:04:07.701Z,30.50
2019-01-24T10:06:48.725Z,31.27
2019-01-24T10:09:29.724Z,32.53
2019-01-24T10:12:10.557Z,33.43
2019-01-24T10:14:51.651Z,30.83
2019-01-24T10:17:33.770Z,31.90
2019-01-24T10:20:14.496Z,30.90
2019-01-24T10:22:55.225Z,30.70
2019-01-24T10:25:36.228Z,33.17
2019-01-24T10:28:17.395Z,32.97
2019-01-24T10:30:58.351Z,31.63
2019-01-24T10:33:39.332Z,31.67
2019-01-24T10:36:19.988Z,32.57
2019-01-24T10:39:00.887Z,32.20
2019-01-24T10:41:41.827Z,33.43
2019-01-24T10:44:22.070Z,32.73
2019-01-24T10:47:03.221Z,31.77
2019-01-24T10:49:44.116Z,33.10
2019-01-24T10:52:24.681Z,33.83
2019-01-24T10:55:05.461Z,33.23
2019-01-24T10:57:46.456Z,32.03
2019-01-24T11:00:27.425Z,32.93
2019-01-24T11:03:08.403Z,34.73
2019-01-24T11:05:48.966Z,34.27
2019-01-24T11:08:29.775Z,32.67
2019-01-24T11:11:10.733Z,31.47
2019-01-24T11:13:51.499Z,31.80
2019-01-24T11:16:32.567Z,30.27
2019-01-24T11:19:13.160Z,32.07
2019-01-24T11:21:53.900Z,33.90
2019-01-24T11:24:34.127Z,32.53
2019-01-24T11:27:15.133Z,32.23
2019-01-24T11:29:55.385Z,34.13
2019-01-24T11:32:36.397Z,32.10
2019-01-24T11:35:17.447Z,31.87
2019-01-24T11:37:58.288Z,32.97
2019-01-24T11:40:38.998Z,31.67
2019-01-24T11:43:19.515Z,31.63
2019-01-24T11:46:00.000Z,32.93
2019-01-24T11:48:41.091Z,31.97
2019-01-24T11:51:21.519Z,32.17
2019-01-24T11:54:02.469Z,32.30
2019-01-24T11:56:43.083Z,34.47
2019-01-24T11:59:23.753Z,32.53
2019-01-24T12:02:04.967Z,32.17
2019-01-24T12:04:45.429Z,31.70
2019-01-24T12:07:29.028Z,32.70
2019-01-24T12:10:09.930Z,32.37
2019-01-24T12:12:50.254Z,34.60
2019-01-24T12:15:30.893Z,33.73
2019-01-24T12:18:11.830Z,33.50
2019-01-24T12:20:52.331Z,32.90
2019-01-24T12:23:32.960Z,32.73
2019-01-24T12:26:14.723Z,33.00
2019-01-24T12:28:55.469Z,33.07
2019-01-24T12:31:36.350Z,32.63
2019-01-24T12:34:17.085Z,32.47
2019-01-24T12:36:57.972Z,32.20
2019-01-24T12:39:38.457Z,35.23
2019-01-24T12:42:19.493Z,33.37
2019-01-24T12:45:00.350Z,32.23
2019-01-24T12:48:08.966Z,32.90
2019-01-24T12:50:56.768Z,31.80
2019-01-24T12:53:44.540Z,31.03
2019-01-24T12:56:32.308Z,32.10
2019-01-24T12:59:20.128Z,31.57
2019-01-24T13:02:00.926Z,32.60
2019-01-24T13:04:42.044Z,32.53
2019-01-24T13:07:22.627Z,32.97
2019-01-24T13:10:03.544Z,32.73
2019-01-24T13:12:44.298Z,31.20
2019-01-24T13:15:25.009Z,32.77
2019-01-24T13:18:05.914Z,29.87
2019-01-24T13:20:46.603Z,30.90
2019-01-24T13:23:27.089Z,31.63
2019-01-24T13:26:07.910Z,31.70
2019-01-24T13:28:49.442Z,30.67
2019-01-24T13:31:30.404Z,31.10
2019-01-24T13:34:11.319Z,30.70
2019-01-24T13:36:51.961Z,30.73
2019-01-24T13:39:32.875Z,30.00
2019-01-24T13:42:13.701Z,30.33
2019-01-24T13:44:54.784Z,30.90
2019-01-24T13:47:36.013Z,33.20
2019-01-24T13:50:16.899Z,32.43
2019-01-24T13:52:57.678Z,34.40
2019-01-24T13:55:39.486Z,31.97
2019-01-24T13:58:20.098Z,31.03
2019-01-24T14:01:00.807Z,31.00
2019-01-24T14:03:42.126Z,24.63
2019-01-24T14:06:23.569Z,30.97
2019-01-24T14:09:03.583Z,29.97
2019-01-24T14:11:44.509Z,31.40
2019-01-24T14:14:25.593Z,31.47
2019-01-24T14:17:06.596Z,28.70
2019-01-24T14:19:47.129Z,30.77
2019-01-24T14:22:27.898Z,32.17
2019-01-24T14:25:08.522Z,30.00
2019-01-24T14:27:49.129Z,29.23
2019-01-24T14:30:29.974Z,28.70
2019-01-24T14:33:10.774Z,30.00
2019-01-24T14:35:51.382Z,30.50
2019-01-24T14:38:32.380Z,31.57
2019-01-24T14:41:12.778Z,31.57
2019-01-24T14:43:53.546Z,30.97
2019-01-24T14:46:34.768Z,29.80
2019-01-24T14:49:15.752Z,28.80
2019-01-24T14:51:56.127Z,28.67
2019-01-24T14:54:37.314Z,29.93
2019-01-24T14:57:18.329Z,33.30
2019-01-24T14:59:58.601Z,32.33
2019-01-24T15:02:39.448Z,31.67
2019-01-24T15:05:20.268Z,30.37
2019-01-24T15:08:00.978Z,31.53
2019-01-24T15:10:41.697Z,31.80
2019-01-24T15:13:22.158Z,32.57
2019-01-24T15:16:03.084Z,30.03
2019-01-24T15:18:43.622Z,31.40
2019-01-24T15:21:24.097Z,31.97
2019-01-24T15:24:05.329Z,30.67
2019-01-24T15:26:46.362Z,32.13
2019-01-24T15:29:26.913Z,31.47
2019-01-24T15:32:07.736Z,32.87
2019-01-24T15:34:48.702Z,32.30
2019-01-24T15:37:29.205Z,31.83
2019-01-24T15:40:09.983Z,32.53
2019-01-24T15:42:51.182Z,32.10
2019-01-24T15:45:31.802Z,30.97
2019-01-24T15:48:12.046Z,33.73
2019-01-24T15:50:52.375Z,31.13
2019-01-24T15:53:35.043Z,31.17
2019-01-24T15:56:18.748Z,30.37
2019-01-24T15:58:59.550Z,31.50
2019-01-24T16:01:39.991Z,31.37
2019-01-24T16:04:08.432Z,31.73
2019-01-24T16:06:56.211Z,31.47
2019-01-24T16:09:44.241Z,31.67
2019-01-24T16:12:31.984Z,31.80
2019-01-24T16:15:40.494Z,31.33
2019-01-24T16:18:28.269Z,31.97
2019-01-24T16:21:16.192Z,31.13
2019-01-24T16:24:04.434Z,32.57
2019-01-24T16:29:46.744Z,31.73
2019-01-24T16:32:34.518Z,30.87
2019-01-24T16:35:22.297Z,31.17
2019-01-24T16:38:10.584Z,30.93
2019-01-24T16:40:59.319Z,28.90
2019-01-24T16:43:47.902Z,31.80
2019-01-24T16:46:35.713Z,30.63
2019-01-24T16:49:35.506Z,31.73
2019-01-24T16:52:13.313Z,31.40
2019-01-24T16:55:01.073Z,30.70
2019-01-24T16:57:49.684Z,31.43
2019-01-24T17:00:39.024Z,31.63
2019-01-24T17:03:19.727Z,30.30
2019-01-24T17:06:00.266Z,30.00
2019-01-24T17:08:28.705Z,30.23
2019-01-24T17:11:16.520Z,30.20
2019-01-24T17:14:04.856Z,29.53
2019-01-24T17:16:52.612Z,29.83
2019-01-24T17:19:40.395Z,29.37
2019-01-24T17:22:28.145Z,30.00
2019-01-24T17:25:15.943Z,28.83
2019-01-24T17:28:03.961Z,29.77
2019-01-24T17:30:51.749Z,32.37
2019-01-24T17:33:39.645Z,28.10
2019-01-24T17:36:27.480Z,29.53
2019-01-24T17:39:15.429Z,29.50
2019-01-24T17:42:03.464Z,30.27
2019-01-24T17:44:51.407Z,29.33
2019-01-24T17:47:39.588Z,29.50
2019-01-24T17:50:27.336Z,29.87
2019-01-24T17:53:15.115Z,28.10
2019-01-24T17:56:22.180Z,29.37
2019-01-24T17:59:09.949Z,27.80
2019-01-24T18:01:50.862Z,27.47
2019-01-24T18:04:32.187Z,28.40
2019-01-24T18:07:13.017Z,28.10
2019-01-24T18:09:53.800Z,29.03
2019-01-24T18:12:34.709Z,29.73
2019-01-24T18:15:15.776Z,28.63
2019-01-24T18:17:56.089Z,28.50
2019-01-24T18:20:36.906Z,29.27
2019-01-24T18:23:17.718Z,28.97
2019-01-24T18:25:58.877Z,28.60
2019-01-24T18:28:39.785Z,29.13
2019-01-24T18:31:20.726Z,28.57
2019-01-24T18:34:01.143Z,29.17
2019-01-24T18:36:41.574Z,29.87
2019-01-24T18:39:23.018Z,30.23
2019-01-24T18:42:04.185Z,30.80
2019-01-24T18:44:44.528Z,27.50
2019-01-24T18:47:25.289Z,29.27
2019-01-24T18:50:05.884Z,29.03
2019-01-24T18:52:47.446Z,29.40
2019-01-24T18:55:28.305Z,29.50
2019-01-24T18:58:09.005Z,27.40
2019-01-24T19:00:49.723Z,28.43
2019-01-24T19:03:30.265Z,29.80
2019-01-24T19:05:58.673Z,28.50
2019-01-24T19:08:46.479Z,30.67
2019-01-24T19:11:34.264Z,29.57
2019-01-24T19:14:22.441Z,28.77
2019-01-24T19:17:10.208Z,27.63
2019-01-24T19:19:57.967Z,28.13
2019-01-24T19:22:45.825Z,28.50
2019-01-24T19:25:54.308Z,28.63
2019-01-24T19:28:42.048Z,28.10
2019-01-24T19:31:29.872Z,29.70
2019-01-24T19:34:17.633Z,29.33
2019-01-24T19:37:05.504Z,29.50
2019-01-24T19:39:53.289Z,30.67
2019-01-24T19:42:41.050Z,29.97
2019-01-24T19:45:28.949Z,28.63
2019-01-24T19:48:16.724Z,28.90
2019-01-24T19:51:04.695Z,28.73
2019-01-24T19:53:54.338Z,28.50
2019-01-24T19:56:56.451Z,28.10
2019-01-24T19:59:32.049Z,29.63
2019-01-24T20:02:13.128Z,28.83
2019-01-24T20:04:53.883Z,28.57
2019-01-24T20:07:35.385Z,28.87
2019-01-24T20:10:16.264Z,28.87
2019-01-24T20:12:57.112Z,30.13
2019-01-24T20:15:38.229Z,28.63
2019-01-24T20:18:19.125Z,28.03
2019-01-24T20:20:59.910Z,28.77
2019-01-24T20:23:40.418Z,29.10
2019-01-24T20:26:21.140Z,28.97
2019-01-24T20:29:02.047Z,31.60
2019-01-24T20:31:43.177Z,30.17
2019-01-24T20:34:23.816Z,28.33
2019-01-24T20:37:04.177Z,28.80
2019-01-24T20:39:45.138Z,28.80
2019-01-24T20:42:26.019Z,26.87
2019-01-24T20:45:06.865Z,27.83
2019-01-24T20:47:49.158Z,28.97
2019-01-24T20:50:30.044Z,28.87
2019-01-24T20:53:10.670Z,29.73
2019-01-24T20:55:51.421Z,27.93
2019-01-24T20:58:32.044Z,29.43
2019-01-24T21:01:12.568Z,28.27
2019-01-24T21:03:55.437Z,27.97
2019-01-24T21:06:36.093Z,30.27
2019-01-24T21:09:16.862Z,27.90
2019-01-24T21:11:57.917Z,29.00
2019-01-24T21:14:38.537Z,27.60
2019-01-24T21:17:19.552Z,27.10
2019-01-24T21:20:00.757Z,28.17
2019-01-24T21:22:41.316Z,26.93
2019-01-24T21:25:21.986Z,26.97
2019-01-24T21:28:02.986Z,28.60
2019-01-24T21:30:43.924Z,28.50
2019-01-24T21:33:24.912Z,28.93
2019-01-24T21:36:05.657Z,29.23
2019-01-24T21:38:46.756Z,27.50
2019-01-24T21:41:27.630Z,27.37
2019-01-24T21:44:08.563Z,26.87
2019-01-24T21:46:49.029Z,27.23
2019-01-24T21:49:29.724Z,27.63
2019-01-24T21:52:10.935Z,28.70
2019-01-24T21:54:51.339Z,27.93
2019-01-24T21:57:32.048Z,28.63
2019-01-24T22:00:13.840Z,28.43
2019-01-24T22:02:54.888Z,28.37
2019-01-24T22:05:36.143Z,28.90
2019-01-24T22:08:16.776Z,27.40
2019-01-24T22:10:57.816Z,27.23
2019-01-24T22:13:39.052Z,28.17
2019-01-24T22:16:19.616Z,28.77
2019-01-24T22:19:00.184Z,29.37
2019-01-24T22:21:40.937Z,29.10
2019-01-24T22:24:23.710Z,28.80
2019-01-24T22:26:58.848Z,27.80
2019-01-24T22:29:46.653Z,27.33
2019-01-24T22:32:34.418Z,27.53
2019-01-24T22:35:22.438Z,27.53
2019-01-24T22:38:10.292Z,28.43
2019-01-24T22:41:00.392Z,26.73
2019-01-24T22:43:48.231Z,26.63
2019-01-24T22:46:36.051Z,29.40
2019-01-24T22:49:23.808Z,28.43
2019-01-24T22:52:11.836Z,28.10
2019-01-24T22:54:59.581Z,27.00
2019-01-24T22:57:47.349Z,28.53
2019-01-24T23:00:55.239Z,27.60
2019-01-24T23:04:03.700Z,27.90
2019-01-24T23:07:03.694Z,27.50
2019-01-24T23:09:33.456Z,28.40
2019-01-24T23:12:14.676Z,28.40
2019-01-24T23:14:58.571Z,27.87
2019-01-24T23:17:39.666Z,28.33
2019-01-24T23:20:20.324Z,27.37
2019-01-24T23:23:01.293Z,26.37
2019-01-24T23:25:41.877Z,26.53
2019-01-24T23:28:23.052Z,27.13
2019-01-24T23:31:03.881Z,26.47
2019-01-24T23:33:44.896Z,26.83
2019-01-24T23:36:25.703Z,27.53
2019-01-24T23:39:06.560Z,26.90
2019-01-24T23:41:47.610Z,27.53
2019-01-24T23:44:28.369Z,26.10
2019-01-24T23:47:09.008Z,26.03
2019-01-24T23:49:49.668Z,26.20
2019-01-24T23:52:30.600Z,26.90
2019-01-24T23:54:59.035Z,27.03
2019-01-24T23:57:46.813Z,28.23
